createdAt,value
2022-11-03T00:01:29.624Z,9.81
2022-11-03T00:06:41.916Z,9.78
2022-11-03T00:11:54.073Z,9.73
2022-11-03T00:17:06.755Z,9.7
2022-11-03T00:22:19.837Z,9.64
2022-11-03T00:27:31.561Z,9.63
2022-11-03T00:32:43.869Z,9.61
2022-11-03T00:37:56.350Z,9.57
2022-11-03T00:43:08.550Z,9.51
2022-11-03T00:48:20.876Z,9.45
2022-11-03T00:53:33.128Z,9.37
2022-11-03T00:58:45.425Z,9.29
2022-11-03T01:04:00.617Z,9.28
2022-11-03T01:09:13.062Z,9.31
2022-11-03T01:14:25.512Z,9.34
2022-11-03T01:19:38.042Z,9.33
2022-11-03T01:24:50.559Z,9.34
2022-11-03T01:30:02.680Z,9.31
2022-11-03T01:35:15.679Z,9.27
2022-11-03T01:40:28.022Z,9.25
2022-11-03T01:45:40.746Z,9.22
2022-11-03T01:50:52.974Z,9.17
2022-11-03T01:56:05.568Z,9.12
2022-11-03T02:01:18.061Z,9.06
2022-11-03T02:06:30.204Z,8.96
2022-11-03T02:11:42.884Z,8.87
2022-11-03T02:16:55.071Z,8.83
2022-11-03T02:22:07.643Z,8.77
2022-11-03T02:27:20.271Z,8.77
2022-11-03T02:37:45.228Z,8.81
2022-11-03T02:43:03.184Z,8.82
2022-11-03T02:48:15.566Z,8.85
2022-11-03T02:53:28.131Z,8.83
2022-11-03T02:58:40.352Z,8.78
2022-11-03T03:03:52.862Z,8.75
2022-11-03T03:09:05.067Z,8.72
2022-11-03T03:14:17.482Z,8.7
2022-11-03T03:19:30.046Z,8.68
2022-11-03T03:24:42.409Z,8.63
2022-11-03T03:29:54.623Z,8.58
2022-11-03T03:35:06.957Z,8.5
2022-11-03T03:40:19.316Z,8.5
2022-11-03T03:45:31.644Z,8.5
2022-11-03T03:50:43.963Z,8.49
2022-11-03T04:01:08.413Z,8.44
2022-11-03T04:06:26.772Z,8.41
2022-11-03T04:11:39.017Z,8.4
2022-11-03T04:16:51.289Z,8.38
2022-11-03T04:22:03.608Z,8.33
2022-11-03T04:27:16.162Z,8.29
2022-11-03T04:32:28.633Z,8.28
2022-11-03T04:37:44.910Z,8.28
2022-11-03T04:42:53.315Z,8.29
2022-11-03T04:48:05.658Z,8.31
2022-11-03T04:53:17.920Z,8.32
2022-11-03T04:58:30.229Z,8.31
2022-11-03T05:03:42.579Z,8.3
2022-11-03T05:08:54.828Z,8.3
2022-11-03T05:14:07.309Z,8.33
2022-11-03T05:19:19.968Z,8.33
2022-11-03T05:24:35.628Z,8.33
2022-11-03T05:29:47.853Z,8.31
2022-11-03T05:35:00.256Z,8.29
2022-11-03T05:40:12.488Z,8.26
2022-11-03T05:45:24.929Z,8.25
2022-11-03T05:50:37.474Z,8.25
2022-11-03T05:55:49.784Z,8.24
2022-11-03T06:01:02.160Z,8.22
2022-11-03T06:06:14.770Z,8.21
2022-11-03T06:11:26.927Z,8.2
2022-11-03T06:16:39.272Z,8.19
2022-11-03T06:21:51.701Z,8.14
2022-11-03T06:27:03.796Z,8.12
2022-11-03T06:32:16.119Z,8.11
2022-11-03T06:37:28.474Z,8.1
2022-11-03T06:47:53.066Z,8.14
2022-11-03T06:53:05.619Z,8.13
2022-11-03T06:58:17.746Z,8.17
2022-11-03T07:03:30.157Z,8.19
2022-11-03T07:08:42.537Z,8.22
2022-11-03T07:13:54.824Z,8.26
2022-11-03T07:19:07.130Z,8.29
2022-11-03T07:29:31.899Z,8.46
2022-11-03T07:39:56.656Z,8.62
2022-11-03T07:45:14.113Z,8.72
2022-11-03T07:50:26.484Z,8.83
2022-11-03T08:00:50.981Z,9
2022-11-03T08:06:04.762Z,9.05
2022-11-03T08:21:40.270Z,9.24
2022-11-03T08:26:52.583Z,9.35
2022-11-03T08:32:04.985Z,9.44
2022-11-03T08:37:17.355Z,9.56
2022-11-03T08:42:29.768Z,9.72
2022-11-03T08:47:41.983Z,9.87
2022-11-03T08:52:54.322Z,9.99
2022-11-03T08:58:07.121Z,10.13
2022-11-03T09:03:19.303Z,10.29
2022-11-03T09:13:44.068Z,10.75
2022-11-03T09:18:56.602Z,10.99
2022-11-03T09:24:08.821Z,11.2
2022-11-03T09:29:30.156Z,11.45
2022-11-03T09:34:39.514Z,11.65
2022-11-03T09:39:52.091Z,11.9
2022-11-03T09:45:04.352Z,12.14
2022-11-03T09:50:16.827Z,12.42
2022-11-03T09:55:29.272Z,12.7
2022-11-03T10:00:41.694Z,12.97
2022-11-03T10:05:54.189Z,13.28
2022-11-03T10:11:06.609Z,13.58
2022-11-03T10:16:19.049Z,13.78
2022-11-03T10:21:31.356Z,13.92
2022-11-03T10:26:43.810Z,13.96
2022-11-03T10:37:08.694Z,13.92
2022-11-03T10:42:20.985Z,13.96
2022-11-03T10:47:33.283Z,13.97
2022-11-03T10:57:57.990Z,13.79
2022-11-03T11:03:12.615Z,13.78
2022-11-03T11:08:22.733Z,13.69
2022-11-03T11:13:35.846Z,13.57
2022-11-03T11:18:48.247Z,13.52
2022-11-03T11:24:00.769Z,13.44
2022-11-03T11:29:13.127Z,13.37
2022-11-03T11:34:25.670Z,13.28
2022-11-03T11:39:38.106Z,13.29
2022-11-03T11:44:50.570Z,13.31
2022-11-03T11:50:02.893Z,13.31
2022-11-03T11:55:15.328Z,13.36
2022-11-03T12:00:27.776Z,13.36
2022-11-03T12:05:39.945Z,13.38
2022-11-03T12:10:52.400Z,13.44
2022-11-03T12:16:04.640Z,13.48
2022-11-03T12:21:16.961Z,13.52
2022-11-03T12:26:29.273Z,13.55
2022-11-03T12:31:41.615Z,13.6
2022-11-03T12:36:56.277Z,13.6
2022-11-03T12:42:06.256Z,13.59
2022-11-03T12:47:18.824Z,13.57
2022-11-03T12:52:31.152Z,13.61
2022-11-03T12:57:43.822Z,13.65
2022-11-03T13:03:04.894Z,13.69
2022-11-03T13:13:32.271Z,13.98
2022-11-03T13:18:44.621Z,14.09
2022-11-03T13:29:09.360Z,14.48
2022-11-03T13:34:21.458Z,14.62
2022-11-03T13:39:33.757Z,14.61
2022-11-03T13:44:46.367Z,14.77
2022-11-03T13:50:13.426Z,14.78
2022-11-03T14:00:23.901Z,14.66
2022-11-03T14:05:36.249Z,14.58
2022-11-03T14:10:48.433Z,14.59
2022-11-03T14:16:01.130Z,14.52
2022-11-03T14:21:13.429Z,14.63
2022-11-03T14:26:41.559Z,14.58
2022-11-03T14:31:38.745Z,14.49
2022-11-03T14:36:51.325Z,14.44
2022-11-03T14:42:03.719Z,14.35
2022-11-03T14:47:15.838Z,14.23
2022-11-03T14:52:28.097Z,14.08
2022-11-03T14:57:40.459Z,13.97
2022-11-03T15:02:58.946Z,13.86
2022-11-03T15:08:11.321Z,13.75
2022-11-03T15:13:23.366Z,13.6
2022-11-03T15:18:35.545Z,13.5
2022-11-03T15:29:09.239Z,13.37
2022-11-03T15:39:33.906Z,13.21
2022-11-03T15:44:46.120Z,13.12
2022-11-03T15:49:58.446Z,13.07
2022-11-03T15:55:10.857Z,13.02
2022-11-03T16:00:23.099Z,12.95
2022-11-03T16:05:35.408Z,12.91
2022-11-03T16:10:51.903Z,12.84
2022-11-03T16:16:00.055Z,12.82
2022-11-03T16:21:12.348Z,12.78
2022-11-03T16:26:24.739Z,12.76
2022-11-03T16:31:36.924Z,12.74
2022-11-03T16:36:49.349Z,12.71
2022-11-03T16:42:01.608Z,12.65
2022-11-03T16:47:13.821Z,12.62
2022-11-03T16:52:26.191Z,12.58
2022-11-03T16:57:38.863Z,12.53
2022-11-03T17:02:51.079Z,12.5
2022-11-03T17:08:03.472Z,12.5
2022-11-03T17:13:16.239Z,12.45
2022-11-03T17:18:28.155Z,12.4
2022-11-03T17:23:40.573Z,12.39
2022-11-03T17:28:52.929Z,12.37
2022-11-03T17:34:05.059Z,12.33
2022-11-03T17:39:17.490Z,12.32
2022-11-03T17:44:29.766Z,12.33
2022-11-03T17:49:42.176Z,12.38
2022-11-03T17:54:54.497Z,12.44
2022-11-03T18:00:06.834Z,12.41
2022-11-03T18:05:20.346Z,12.34
2022-11-03T18:10:31.376Z,12.28
2022-11-03T18:15:43.795Z,12.28
2022-11-03T18:20:56.079Z,12.26
2022-11-03T18:26:08.428Z,12.25
2022-11-03T18:31:20.632Z,12.2
2022-11-03T18:36:32.997Z,12.19
2022-11-03T18:41:45.300Z,12.19
2022-11-03T18:46:57.794Z,12.18
2022-11-03T18:52:10.056Z,12.17
2022-11-03T18:57:22.375Z,12.15
2022-11-03T19:02:34.890Z,12.15
2022-11-03T19:07:47.139Z,12.14
2022-11-03T19:12:59.570Z,12.15
2022-11-03T19:18:12.051Z,12.12
2022-11-03T19:23:24.411Z,12.12
2022-11-03T19:28:36.642Z,12.12
2022-11-03T19:33:49.038Z,12.12
2022-11-03T19:39:01.188Z,12.11
2022-11-03T19:44:16.171Z,12.08
2022-11-03T19:49:28.423Z,12.05
2022-11-03T19:54:40.994Z,11.99
2022-11-03T19:59:53.255Z,11.94
2022-11-03T20:10:17.803Z,11.82
2022-11-03T20:15:30.206Z,11.78
2022-11-03T20:20:42.532Z,11.75
2022-11-03T20:25:57.519Z,11.73
2022-11-03T20:31:09.886Z,11.7
2022-11-03T20:36:22.287Z,11.67
2022-11-03T20:41:34.591Z,11.64
2022-11-03T20:46:46.961Z,11.59
2022-11-03T20:51:59.222Z,11.55
2022-11-03T20:57:11.556Z,11.49
2022-11-03T21:02:24.126Z,11.46
2022-11-03T21:07:36.086Z,11.42
2022-11-03T21:12:48.330Z,11.36
2022-11-03T21:18:00.729Z,11.3
2022-11-03T21:23:13.275Z,11.25
2022-11-03T21:28:25.574Z,11.21
2022-11-03T21:33:38.045Z,11.13
2022-11-03T21:38:50.372Z,11.08
2022-11-03T21:44:02.647Z,11.04
2022-11-03T21:49:15.086Z,10.99
2022-11-03T21:54:27.364Z,10.9
2022-11-03T21:59:39.741Z,10.87
2022-11-03T22:04:51.969Z,10.86
2022-11-03T22:10:04.258Z,10.84
2022-11-03T22:15:16.637Z,10.86
2022-11-03T22:20:29.029Z,10.81
2022-11-03T22:25:41.352Z,10.81
2022-11-03T22:30:53.578Z,10.82
2022-11-03T22:36:06.036Z,10.81
2022-11-03T22:41:18.430Z,10.77
2022-11-03T22:46:30.856Z,10.75
2022-11-03T22:51:43.156Z,10.71
2022-11-03T22:56:55.473Z,10.68
2022-11-03T23:02:07.912Z,10.68
2022-11-03T23:07:19.843Z,10.64
2022-11-03T23:12:32.132Z,10.6
2022-11-03T23:17:44.411Z,10.61
2022-11-03T23:22:56.713Z,10.62
2022-11-03T23:28:08.900Z,10.6
2022-11-03T23:33:21.280Z,10.56
2022-11-03T23:38:33.372Z,10.52
2022-11-03T23:43:45.776Z,10.48
2022-11-03T23:48:58.391Z,10.47
2022-11-03T23:54:10.503Z,10.44
2022-11-03T23:59:22.865Z,10.41
